Atyrau, Kazakhstan
Current Conditions -  °F | °C
As of 5:30 PM on Thursday 18 Dec 2014 (Local Time) from UATG Reporting Station
Haze Haze  
Wind Chill: 28°   Ceiling: 300
Heat Index: 32°   Visibility: 1.6mi
Dew Point: 32°   Wind: 4mph
Humidity: 100%   Direction: 120°ESE
Pressure: 30.27"   Gusts: NA
Location:  47.12°N, 51.88°E
Report Text: UATG 181330Z 12002MPS 2600 BR OVC003 M00/M00 Q1025 R14/32//52TEMPO 0400 FZFG VV001 RMK QBB090 QFE770/1027
Loading
Personal Weather Stations






























Interactive Weather Map New forecast layout! Learn more

10-Day Weather Forecast

Advertisements
Track Severe Weather on mobile